Time;durP1;ratioP1;P1;durP2;ratioP2;P2;SDS_P1;SDS_P2;PMS_P1;PMS_P2;Temp;Humidity;BMP_temperature;BMP_pressure;BME280_temperature;BME280_humidity;BME280_pressure;Samples;Min_cycle;Max_cycle;Signal;HPM_P1;HPM_P2
2023/04/28 00:00:27;;;;;;;7.10;2.60;;;10.50;91.20;;;;;;5046359;28;20077;-70
2023/04/28 00:02:53;;;;;;;3.58;1.48;;;10.50;91.20;;;;;;5048971;28;20037;-70
2023/04/28 00:05:25;;;;;;;4.57;2.28;;;10.50;91.40;;;;;;5048571;28;20403;-70
2023/04/28 00:07:51;;;;;;;6.78;2.17;;;10.40;91.40;;;;;;5024148;28;20478;-71
2023/04/28 00:10:16;;;;;;;4.05;1.90;;;10.40;91.50;;;;;;5048745;28;20091;-70
2023/04/28 00:12:42;;;;;;;8.18;2.60;;;10.40;91.30;;;;;;5047259;28;20052;-71
2023/04/28 00:15:08;;;;;;;4.65;1.52;;;10.40;91.50;;;;;;5030354;28;20045;-69
2023/04/28 00:17:34;;;;;;;4.43;1.80;;;10.40;91.50;;;;;;5049748;28;20051;-70
2023/04/28 00:19:59;;;;;;;6.78;2.00;;;10.40;91.70;;;;;;5044814;28;20048;-69
2023/04/28 00:22:25;;;;;;;8.07;2.42;;;10.40;92.00;;;;;;5032126;28;20504;-70
2023/04/28 00:24:50;;;;;;;3.22;1.70;;;10.30;92.10;;;;;;5031422;28;20029;-71
2023/04/28 00:27:16;;;;;;;4.15;2.03;;;10.30;92.00;;;;;;5045297;28;20060;-70
2023/04/28 00:29:44;;;;;;;6.60;2.40;;;10.20;92.40;;;;;;5045628;28;20032;-70
2023/04/28 00:32:10;;;;;;;8.75;2.63;;;10.20;92.10;;;;;;5046531;28;20508;-70
2023/04/28 00:34:39;;;;;;;5.75;1.90;;;10.20;92.50;;;;;;5045755;28;20040;-69
2023/04/28 00:37:04;;;;;;;4.68;1.50;;;10.20;92.30;;;;;;5026652;28;20135;-70
2023/04/28 00:39:30;;;;;;;3.95;1.42;;;10.20;92.40;;;;;;5045178;28;20154;-72
2023/04/28 00:41:56;;;;;;;8.65;1.85;;;10.20;92.30;;;;;;5045211;28;20098;-72
2023/04/28 00:44:22;;;;;;;3.47;1.75;;;10.20;92.20;;;;;;5045298;28;20040;-70
2023/04/28 00:46:48;;;;;;;6.47;1.88;;;10.20;92.60;;;;;;5027167;28;20033;-71
2023/04/28 00:49:15;;;;;;;4.32;1.70;;;10.10;92.40;;;;;;5026569;28;20041;-70
2023/04/28 00:51:40;;;;;;;3.85;2.05;;;10.10;92.80;;;;;;5045426;28;20029;-70
2023/04/28 00:54:06;;;;;;;5.32;2.15;;;10.10;92.50;;;;;;5043818;28;20029;-69
2023/04/28 00:56:33;;;;;;;4.13;1.95;;;10.10;92.60;;;;;;5045077;28;20044;-70
2023/04/28 00:59:02;;;;;;;5.93;1.80;;;10.10;92.50;;;;;;5043823;28;20048;-68
2023/04/28 01:01:28;;;;;;;5.15;2.10;;;10.10;92.60;;;;;;5045688;28;20033;-69
2023/04/28 01:03:53;;;;;;;7.10;2.55;;;10.10;92.60;;;;;;5044696;28;20048;-70
2023/04/28 01:06:19;;;;;;;5.28;1.88;;;10.10;92.70;;;;;;5043306;28;20846;-70
2023/04/28 01:08:48;;;;;;;5.97;2.03;;;10.00;92.90;;;;;;5035819;28;20048;-70
2023/04/28 01:11:14;;;;;;;4.32;1.83;;;10.10;92.70;;;;;;5043442;28;20037;-68
2023/04/28 01:13:40;;;;;;;7.45;2.22;;;10.10;92.80;;;;;;5042644;28;20048;-69
2023/04/28 01:16:08;;;;;;;7.53;1.58;;;10.10;92.80;;;;;;5042720;28;20171;-70
2023/04/28 01:18:34;;;;;;;8.57;2.00;;;10.10;92.80;;;;;;5030045;28;20143;-70
2023/04/28 01:20:59;;;;;;;4.22;1.73;;;10.10;92.90;;;;;;5027271;28;20491;-69
2023/04/28 01:23:25;;;;;;;3.38;1.60;;;10.00;92.90;;;;;;5044615;28;20496;-71
2023/04/28 01:25:51;;;;;;;5.72;2.63;;;10.00;92.90;;;;;;5043055;28;20086;-71
2023/04/28 01:28:16;;;;;;;6.55;1.73;;;10.10;92.90;;;;;;5044035;28;20044;-70
2023/04/28 01:30:42;;;;;;;4.18;1.95;;;10.20;92.70;;;;;;5036008;28;20120;-69
2023/04/28 01:33:10;;;;;;;4.05;1.45;;;10.10;92.80;;;;;;5025600;28;20451;-69
2023/04/28 01:35:36;;;;;;;4.50;2.13;;;10.10;92.70;;;;;;5043433;28;20044;-70
2023/04/28 01:38:01;;;;;;;6.40;1.80;;;10.00;92.90;;;;;;5042685;28;20045;-69
2023/04/28 01:40:27;;;;;;;5.32;2.05;;;10.00;92.90;;;;;;5043760;28;20060;-72
2023/04/28 01:42:53;;;;;;;4.57;1.77;;;10.10;92.90;;;;;;5043606;28;20026;-70
2023/04/28 01:45:18;;;;;;;3.25;1.65;;;10.10;92.90;;;;;;5042518;28;20124;-70
2023/04/28 01:47:44;;;;;;;3.97;1.48;;;10.00;93.00;;;;;;5043530;28;20029;-70
2023/04/28 01:50:15;;;;;;;4.63;1.50;;;10.10;93.00;;;;;;5027493;28;20060;-70
2023/04/28 01:52:44;;;;;;;5.07;1.30;;;10.10;92.80;;;;;;5030377;28;20041;-69
2023/04/28 01:55:10;;;;;;;4.45;2.25;;;10.00;92.80;;;;;;5044539;28;20571;-69
2023/04/28 01:57:44;;;;;;;5.95;1.98;;;10.10;92.80;;;;;;5044938;28;20072;-71
2023/04/28 02:00:13;;;;;;;3.42;1.60;;;10.10;92.90;;;;;;5047048;28;20033;-72
2023/04/28 02:02:47;;;;;;;3.90;1.95;;;10.00;92.90;;;;;;5032409;28;20453;-70
2023/04/28 02:05:19;;;;;;;3.85;2.10;;;10.00;93.20;;;;;;5029329;28;20048;-69
2023/04/28 02:07:51;;;;;;;5.75;1.67;;;10.00;93.00;;;;;;5032860;28;20048;-71
2023/04/28 02:10:20;;;;;;;7.05;1.73;;;9.90;93.20;;;;;;5045277;28;20039;-69
2023/04/28 02:12:45;;;;;;;5.22;1.65;;;10.00;93.30;;;;;;5018210;28;20029;-70
2023/04/28 02:15:11;;;;;;;4.82;1.92;;;10.00;93.10;;;;;;5046316;28;20128;-71
2023/04/28 02:17:37;;;;;;;3.47;1.65;;;10.00;93.00;;;;;;5032318;28;20067;-70
2023/04/28 02:20:03;;;;;;;4.68;1.85;;;10.00;93.10;;;;;;5046537;28;20045;-70
2023/04/28 02:22:29;;;;;;;4.10;1.73;;;10.00;93.10;;;;;;5047784;28;20068;-71
2023/04/28 02:24:56;;;;;;;3.40;1.50;;;10.00;93.10;;;;;;5033685;28;20028;-70
2023/04/28 02:27:21;;;;;;;4.45;2.00;;;9.90;93.30;;;;;;5033235;28;20119;-69
2023/04/28 02:29:47;;;;;;;5.80;2.13;;;10.00;93.40;;;;;;5047363;28;20108;-70
2023/04/28 02:32:16;;;;;;;4.18;1.40;;;9.90;93.50;;;;;;5046728;28;20033;-69
2023/04/28 02:34:44;;;;;;;3.30;1.50;;;9.90;93.50;;;;;;5028753;28;20029;-70
2023/04/28 02:37:10;;;;;;;5.35;2.15;;;9.90;93.40;;;;;;5031099;28;20045;-70
2023/04/28 02:39:42;;;;;;;4.10;1.48;;;9.90;93.20;;;;;;5047613;28;20041;-70
2023/04/28 02:42:11;;;;;;;5.53;1.50;;;9.90;93.40;;;;;;5046151;28;20029;-70
2023/04/28 02:44:36;;;;;;;3.35;1.67;;;9.90;93.40;;;;;;5047821;28;20036;-70
2023/04/28 02:47:05;;;;;;;7.75;1.92;;;9.90;93.40;;;;;;5028553;28;20028;-69
2023/04/28 02:49:33;;;;;;;6.68;2.25;;;9.90;93.40;;;;;;5047208;28;20103;-69
2023/04/28 02:51:59;;;;;;;3.45;1.35;;;9.90;93.50;;;;;;5046502;28;20487;-70
2023/04/28 02:54:27;;;;;;;4.45;1.73;;;9.90;93.50;;;;;;5047618;28;20040;-70
2023/04/28 02:56:57;;;;;;;4.88;1.55;;;9.90;93.70;;;;;;5047287;28;20041;-70
2023/04/28 02:59:23;;;;;;;2.90;1.80;;;9.90;93.70;;;;;;5046401;28;20029;-70
2023/04/28 03:01:50;;;;;;;3.67;1.73;;;9.90;94.00;;;;;;5047312;28;20443;-70
2023/04/28 03:04:16;;;;;;;3.50;1.50;;;9.90;94.00;;;;;;5029356;28;20040;-70
2023/04/28 03:06:42;;;;;;;5.20;1.88;;;9.90;94.00;;;;;;5047659;28;20377;-70
2023/04/28 03:09:14;;;;;;;2.45;1.55;;;9.80;94.00;;;;;;5045274;28;20037;-70
2023/04/28 03:11:40;;;;;;;6.43;1.92;;;9.90;94.20;;;;;;5047426;28;20033;-69
2023/04/28 03:14:08;;;;;;;3.20;1.50;;;9.80;94.20;;;;;;5028848;28;20033;-70
2023/04/28 03:16:37;;;;;;;4.78;1.85;;;9.90;94.10;;;;;;5047252;28;20045;-69
2023/04/28 03:19:05;;;;;;;5.00;1.42;;;9.90;94.20;;;;;;5045680;28;20049;-70
2023/04/28 03:21:34;;;;;;;4.18;1.83;;;9.90;94.10;;;;;;5047213;28;20094;-69
2023/04/28 03:23:59;;;;;;;6.03;2.42;;;9.90;94.30;;;;;;5050622;28;20090;-72
2023/04/28 03:26:28;;;;;;;3.53;1.50;;;9.80;94.30;;;;;;5043389;28;20049;-70
2023/04/28 03:28:54;;;;;;;3.03;1.67;;;9.90;94.30;;;;;;5046443;28;20555;-68
2023/04/28 03:31:20;;;;;;;5.30;2.20;;;9.80;94.40;;;;;;5046006;28;20033;-69
2023/04/28 03:33:46;;;;;;;3.80;1.90;;;9.90;94.30;;;;;;5036219;28;20503;-68
2023/04/28 03:36:17;;;;;;;5.35;1.70;;;9.90;94.50;;;;;;5045149;28;20037;-70
2023/04/28 03:38:46;;;;;;;10.10;1.85;;;9.80;94.50;;;;;;5021719;28;20500;-70
2023/04/28 03:41:24;;;;;;;5.25;1.60;;;9.70;94.60;;;;;;5045367;28;20118;-71
2023/04/28 03:43:50;;;;;;;4.63;1.80;;;9.70;94.80;;;;;;5040171;28;20032;-70
2023/04/28 03:46:19;;;;;;;5.93;2.00;;;9.70;94.70;;;;;;5031072;28;20036;-73
2023/04/28 03:48:45;;;;;;;7.97;1.77;;;9.80;94.80;;;;;;5046209;28;20053;-70
2023/04/28 03:51:13;;;;;;;3.13;1.25;;;9.80;94.90;;;;;;5038442;28;20059;-70
2023/04/28 03:53:39;;;;;;;8.75;2.35;;;9.70;94.90;;;;;;5042944;28;20560;-68
2023/04/28 03:56:05;;;;;;;6.53;2.22;;;9.70;94.90;;;;;;5045072;28;20025;-70
2023/04/28 03:58:30;;;;;;;3.92;1.40;;;9.70;95.00;;;;;;5031302;28;20048;-69
2023/04/28 04:00:56;;;;;;;5.15;2.00;;;9.70;95.20;;;;;;5045747;28;20037;-69
2023/04/28 04:03:24;;;;;;;4.75;1.85;;;9.70;95.40;;;;;;5045549;28;20037;-69
2023/04/28 04:05:50;;;;;;;5.00;2.20;;;9.70;95.40;;;;;;5045823;28;20108;-68
2023/04/28 04:08:16;;;;;;;3.53;1.40;;;9.60;95.40;;;;;;5036650;28;20164;-68
2023/04/28 04:10:42;;;;;;;10.70;2.78;;;9.60;95.60;;;;;;5037019;28;20041;-70
2023/04/28 04:13:07;;;;;;;7.80;1.73;;;9.70;95.70;;;;;;5044102;28;20028;-70
2023/04/28 04:15:33;;;;;;;6.10;1.95;;;9.70;95.60;;;;;;5031636;28;20063;-69
2023/04/28 04:18:01;;;;;;;6.10;1.95;;;9.70;95.90;;;;;;5035451;28;20061;-72
2023/04/28 04:20:27;;;;;;;7.88;1.92;;;9.70;96.00;;;;;;5031920;28;20037;-70
2023/04/28 04:22:52;;;;;;;6.18;1.92;;;9.70;96.10;;;;;;5026925;28;20081;-69
2023/04/28 04:25:18;;;;;;;7.70;2.38;;;9.70;96.10;;;;;;5045121;28;20506;-71
2023/04/28 04:27:44;;;;;;;5.13;1.98;;;9.80;96.00;;;;;;5031864;28;20081;-70
2023/04/28 04:30:12;;;;;;;3.80;2.10;;;9.70;96.30;;;;;;5044396;28;20116;-69
2023/04/28 04:32:41;;;;;;;5.22;2.15;;;9.70;96.40;;;;;;5037457;28;20516;-70
2023/04/28 04:35:07;;;;;;;3.35;1.65;;;9.70;96.40;;;;;;5025251;28;20036;-70
2023/04/28 04:37:32;;;;;;;10.48;2.30;;;9.80;96.50;;;;;;5035886;28;20045;-68
2023/04/28 04:39:58;;;;;;;3.90;2.28;;;9.70;96.70;;;;;;5031603;28;20109;-74
2023/04/28 04:42:27;;;;;;;4.18;2.00;;;9.70;96.80;;;;;;5028168;28;20045;-70
2023/04/28 04:44:55;;;;;;;4.60;2.15;;;9.70;96.90;;;;;;5044851;28;20107;-74
2023/04/28 04:47:22;;;;;;;5.68;2.40;;;9.70;97.10;;;;;;5043506;28;20040;-69
2023/04/28 04:49:51;;;;;;;3.10;1.70;;;9.70;97.10;;;;;;5036200;28;20632;-71
2023/04/28 04:52:19;;;;;;;3.42;1.98;;;9.70;97.30;;;;;;5029490;28;20036;-69
2023/04/28 04:54:48;;;;;;;6.45;2.20;;;9.70;97.30;;;;;;5027437;28;20662;-69
2023/04/28 04:57:13;;;;;;;5.53;2.20;;;9.70;97.60;;;;;;5023253;28;20033;-70
2023/04/28 04:59:39;;;;;;;5.70;2.00;;;9.70;97.90;;;;;;5044331;28;20197;-68
2023/04/28 05:02:07;;;;;;;6.68;2.10;;;9.60;98.10;;;;;;5030447;28;20136;-71
2023/04/28 05:04:33;;;;;;;4.57;2.10;;;9.60;98.10;;;;;;5026709;28;20043;-70
2023/04/28 05:06:58;;;;;;;4.10;1.90;;;9.60;98.30;;;;;;5043869;28;20539;-70
2023/04/28 05:09:24;;;;;;;5.80;2.17;;;9.60;98.50;;;;;;5044808;28;20041;-70
2023/04/28 05:11:50;;;;;;;5.25;2.30;;;9.60;98.60;;;;;;5045397;28;20171;-70
2023/04/28 05:14:16;;;;;;;5.93;2.30;;;9.60;98.90;;;;;;5043671;28;20041;-70
2023/04/28 05:16:44;;;;;;;7.43;2.65;;;9.70;99.10;;;;;;5045157;28;20052;-69
2023/04/28 05:19:16;;;;;;;3.95;2.13;;;9.70;99.00;;;;;;5029843;28;20585;-68
2023/04/28 05:21:41;;;;;;;7.20;2.53;;;9.80;99.20;;;;;;5038156;28;20657;-70
2023/04/28 05:24:10;;;;;;;7.18;3.78;;;9.80;99.30;;;;;;5043647;28;20071;-70
2023/04/28 05:26:36;;;;;;;8.40;2.83;;;9.80;99.70;;;;;;5045273;28;20116;-69
2023/04/28 05:29:01;;;;;;;7.00;2.60;;;9.80;99.90;;;;;;5043931;28;20124;-71
2023/04/28 05:31:30;;;;;;;6.18;2.63;;;9.70;99.90;;;;;;5044307;28;20044;-71
2023/04/28 05:33:58;;;;;;;5.53;2.45;;;9.60;99.90;;;;;;5033813;28;20029;-69
2023/04/28 05:36:27;;;;;;;8.75;2.83;;;9.40;99.90;;;;;;5050624;28;20049;-70
2023/04/28 05:38:52;;;;;;;6.95;3.28;;;9.30;99.90;;;;;;5040452;28;20039;-69
2023/04/28 05:41:21;;;;;;;10.75;3.13;;;9.20;99.90;;;;;;5039445;28;20221;-70
2023/04/28 05:43:49;;;;;;;7.03;3.38;;;9.20;99.90;;;;;;5040341;28;20734;-70
2023/04/28 05:46:15;;;;;;;8.07;3.28;;;9.20;99.90;;;;;;5050004;28;20493;-70
2023/04/28 05:48:41;;;;;;;5.57;3.20;;;9.10;99.90;;;;;;5050238;28;20112;-71
2023/04/28 05:51:06;;;;;;;10.10;3.65;;;9.10;99.90;;;;;;5032209;28;20121;-70
2023/04/28 05:53:35;;;;;;;7.63;3.35;;;9.20;99.90;;;;;;5036623;28;20028;-70
2023/04/28 05:56:00;;;;;;;12.20;4.32;;;9.30;99.90;;;;;;5030123;28;20036;-71
2023/04/28 05:58:26;;;;;;;10.40;3.63;;;9.30;99.90;;;;;;5049119;28;20029;-70
2023/04/28 06:00:53;;;;;;;11.25;4.10;;;9.40;99.90;;;;;;5049738;28;20044;-70
2023/04/28 06:03:21;;;;;;;7.05;3.28;;;9.40;99.90;;;;;;5033769;28;20397;-70
2023/04/28 06:05:47;;;;;;;12.02;3.17;;;9.50;99.90;;;;;;5049971;28;20391;-70
2023/04/28 06:08:13;;;;;;;7.55;3.72;;;9.60;99.90;;;;;;5048074;28;20061;-70
2023/04/28 06:10:39;;;;;;;9.88;3.10;;;9.50;99.90;;;;;;5048901;28;20060;-69
2023/04/28 06:13:05;;;;;;;8.45;4.18;;;9.50;99.90;;;;;;5048025;28;20090;-70
2023/04/28 06:15:31;;;;;;;8.35;3.92;;;9.40;99.90;;;;;;5049419;28;20439;-69
2023/04/28 06:17:58;;;;;;;11.40;3.65;;;9.20;99.90;;;;;;5034858;28;20033;-70
2023/04/28 06:20:23;;;;;;;8.80;4.03;;;9.10;99.90;;;;;;5040864;28;20722;-69
2023/04/28 06:22:52;;;;;;;16.92;4.63;;;9.10;99.90;;;;;;5050289;28;20029;-69
2023/04/28 06:25:17;;;;;;;13.18;4.88;;;9.00;99.90;;;;;;5034828;28;20485;-70
2023/04/28 06:27:43;;;;;;;23.08;5.82;;;9.00;99.90;;;;;;5050093;28;20029;-70
2023/04/28 06:30:09;;;;;;;7.47;3.90;;;9.10;99.90;;;;;;5048464;28;20033;-70
2023/04/28 06:32:34;;;;;;;14.73;5.45;;;9.10;99.90;;;;;;5049726;28;20045;-69
2023/04/28 06:35:00;;;;;;;11.98;5.47;;;9.20;99.90;;;;;;5038621;28;20037;-71
2023/04/28 06:37:26;;;;;;;11.55;3.95;;;9.20;99.90;;;;;;5050094;28;20044;-70
2023/04/28 06:39:51;;;;;;;18.67;4.80;;;9.20;99.90;;;;;;5049789;28;20133;-70
2023/04/28 06:42:19;;;;;;;13.32;5.65;;;9.30;99.90;;;;;;5049738;28;20048;-70
2023/04/28 06:44:44;;;;;;;10.18;4.63;;;9.30;99.90;;;;;;5049301;28;20055;-69
2023/04/28 06:47:10;;;;;;;13.57;5.32;;;9.40;99.90;;;;;;5030962;28;20039;-69
2023/04/28 06:49:36;;;;;;;10.95;4.88;;;9.40;99.90;;;;;;5048154;28;20056;-70
2023/04/28 06:52:01;;;;;;;11.63;4.88;;;9.50;99.90;;;;;;5047001;28;20025;-70
2023/04/28 06:54:27;;;;;;;16.08;5.35;;;9.50;99.90;;;;;;5047721;28;20037;-71
2023/04/28 06:56:52;;;;;;;13.90;5.00;;;9.60;99.90;;;;;;5050434;28;20136;-70
2023/04/28 06:59:24;;;;;;;12.02;5.65;;;9.70;99.90;;;;;;5045835;28;20047;-70
2023/04/28 07:01:49;;;;;;;12.25;4.70;;;9.80;99.90;;;;;;5035794;28;20047;-70
2023/04/28 07:04:15;;;;;;;13.65;5.50;;;9.90;99.90;;;;;;5046988;28;20131;-68
2023/04/28 07:06:40;;;;;;;8.50;4.57;;;10.00;99.90;;;;;;5029692;28;20040;-69
2023/04/28 07:09:06;;;;;;;9.15;4.65;;;10.00;99.90;;;;;;5045592;28;20686;-69
2023/04/28 07:11:32;;;;;;;9.85;4.50;;;10.10;99.90;;;;;;5050612;28;20133;-69
2023/04/28 07:13:57;;;;;;;11.40;5.90;;;10.20;99.90;;;;;;5047623;28;20476;-68
2023/04/28 07:16:25;;;;;;;12.27;5.45;;;10.30;99.90;;;;;;5047361;28;20147;-68
2023/04/28 07:18:50;;;;;;;9.07;4.63;;;10.40;99.90;;;;;;5047853;28;20025;-71
2023/04/28 07:21:20;;;;;;;10.38;5.30;;;10.60;99.90;;;;;;5028828;28;20041;-68
2023/04/28 07:23:48;;;;;;;11.20;5.28;;;10.60;99.90;;;;;;5047586;28;20029;-69
2023/04/28 07:26:17;;;;;;;15.40;5.35;;;10.60;99.90;;;;;;5036514;28;20553;-70
2023/04/28 07:28:43;;;;;;;8.75;4.50;;;10.60;99.90;;;;;;5046693;28;20029;-71
2023/04/28 07:31:09;;;;;;;8.98;4.60;;;10.60;99.90;;;;;;5037232;28;20024;-70
2023/04/28 07:33:37;;;;;;;10.30;4.88;;;10.70;99.90;;;;;;5044842;28;20134;-70
2023/04/28 07:36:03;;;;;;;10.50;4.53;;;10.70;99.90;;;;;;5045358;28;20111;-70
2023/04/28 07:38:29;;;;;;;10.63;4.75;;;10.70;99.90;;;;;;5028598;28;20025;-70
2023/04/28 07:40:55;;;;;;;10.75;5.82;;;10.70;99.90;;;;;;5034828;28;20104;-68
2023/04/28 07:43:20;;;;;;;8.38;4.93;;;10.80;99.90;;;;;;5031375;28;20567;-70
2023/04/28 07:45:47;;;;;;;9.93;5.10;;;10.80;99.90;;;;;;5037894;28;20051;-71
2023/04/28 07:48:14;;;;;;;9.80;4.47;;;10.80;99.90;;;;;;5042017;28;20017;-69
2023/04/28 07:50:40;;;;;;;12.15;6.28;;;10.80;99.90;;;;;;5020111;28;20069;-72
2023/04/28 07:53:05;;;;;;;13.70;5.53;;;10.90;99.90;;;;;;5040228;28;20049;-71
2023/04/28 07:55:31;;;;;;;13.35;5.85;;;10.90;99.90;;;;;;5043038;28;20071;-72
2023/04/28 07:57:59;;;;;;;11.65;5.05;;;10.90;99.90;;;;;;5027198;28;20535;-69
2023/04/28 08:00:25;;;;;;;10.63;5.40;;;10.80;99.90;;;;;;5041199;28;20061;-69
2023/04/28 08:02:54;;;;;;;12.43;5.70;;;10.80;99.90;;;;;;5025425;28;20075;-71
2023/04/28 08:05:22;;;;;;;11.23;5.75;;;10.90;99.90;;;;;;5042125;28;22115;-69
2023/04/28 08:07:47;;;;;;;10.50;5.78;;;10.90;99.90;;;;;;5042406;28;20033;-69
2023/04/28 08:10:16;;;;;;;11.75;5.65;;;11.00;99.90;;;;;;5023072;28;20052;-71
2023/04/28 08:12:44;;;;;;;10.82;5.43;;;11.00;99.90;;;;;;5028027;28;20036;-69
2023/04/28 08:15:09;;;;;;;15.45;6.20;;;11.00;99.90;;;;;;5041977;28;20095;-71
2023/04/28 08:17:38;;;;;;;11.32;6.20;;;11.00;99.90;;;;;;5034225;28;20044;-69
2023/04/28 08:20:07;;;;;;;14.63;6.90;;;11.00;99.90;;;;;;5041165;28;20172;-70
2023/04/28 08:22:36;;;;;;;14.15;7.03;;;11.10;99.90;;;;;;5025142;28;20123;-69
2023/04/28 08:25:02;;;;;;;14.23;7.13;;;11.20;99.90;;;;;;5020581;28;20032;-71
2023/04/28 08:27:27;;;;;;;16.30;6.72;;;11.30;99.90;;;;;;5043241;28;20024;-69
2023/04/28 08:29:53;;;;;;;14.00;7.40;;;11.30;99.90;;;;;;5043055;28;20048;-69
2023/04/28 08:32:21;;;;;;;15.02;7.38;;;11.30;99.90;;;;;;5041499;28;20041;-69
2023/04/28 08:34:47;;;;;;;17.55;8.13;;;11.40;99.90;;;;;;5042262;28;20031;-69
2023/04/28 08:37:19;;;;;;;13.65;7.18;;;11.40;99.90;;;;;;5041314;28;20033;-70
2023/04/28 08:39:45;;;;;;;13.82;7.15;;;11.50;99.90;;;;;;5022458;28;20060;-71
2023/04/28 08:42:11;;;;;;;15.45;7.05;;;11.60;99.90;;;;;;5041777;28;20044;-71
2023/04/28 08:44:48;;;;;;;12.55;6.78;;;11.60;99.90;;;;;;5027197;28;20044;-70
2023/04/28 08:47:14;;;;;;;14.88;6.35;;;11.60;99.90;;;;;;5041656;28;20037;-70
2023/04/28 08:49:39;;;;;;;12.45;7.00;;;11.60;99.90;;;;;;5042765;28;20523;-69
2023/04/28 08:52:16;;;;;;;11.95;6.15;;;11.60;99.90;;;;;;5020903;28;20033;-71
2023/04/28 08:54:42;;;;;;;19.95;7.05;;;11.70;99.90;;;;;;5042796;28;20058;-70
2023/04/28 08:57:09;;;;;;;13.38;6.75;;;11.70;99.90;;;;;;5041723;28;20037;-70
2023/04/28 08:59:39;;;;;;;13.60;6.47;;;11.80;99.90;;;;;;5042373;28;20075;-68
2023/04/28 09:02:07;;;;;;;17.77;7.03;;;11.80;99.90;;;;;;5041117;28;20041;-70
2023/04/28 09:04:33;;;;;;;16.02;7.70;;;11.80;99.90;;;;;;5026192;28;20053;-69
2023/04/28 09:06:58;;;;;;;13.85;7.40;;;11.70;99.90;;;;;;5041967;28;20167;-69
2023/04/28 09:09:29;;;;;;;14.45;7.25;;;11.90;99.90;;;;;;5041952;28;20470;-70
2023/04/28 09:11:58;;;;;;;;;;;11.90;99.90;;;;;;5041790;28;20029;-69
2023/04/28 09:14:26;;;;;;;17.02;8.15;;;11.90;99.90;;;;;;5042784;28;19923;-69
2023/04/28 09:16:52;;;;;;;16.30;8.57;;;11.90;99.90;;;;;;5013838;28;20401;-69
2023/04/28 09:19:18;;;;;;;15.32;8.32;;;11.80;99.90;;;;;;5044647;28;20419;-69
2023/04/28 09:21:47;;;;;;;14.07;7.13;;;11.80;99.90;;;;;;5027393;28;20030;-69
2023/04/28 09:24:31;;;;;;;14.95;7.38;;;11.80;99.90;;;;;;5042030;28;20086;-70
2023/04/28 09:27:02;;;;;;;14.07;7.88;;;11.80;99.90;;;;;;5036988;28;20041;-71
2023/04/28 09:29:28;;;;;;;14.48;7.55;;;11.90;99.90;;;;;;5043398;28;20036;-72
2023/04/28 09:32:10;;;;;;;13.93;7.75;;;12.10;99.90;;;;;;5043351;28;20029;-70
2023/04/28 09:34:47;;;;;;;13.10;7.88;;;12.00;99.90;;;;;;5023878;28;20094;-68
2023/04/28 09:37:21;;;;;;;11.60;7.22;;;12.10;99.90;;;;;;5041500;28;20040;-70
2023/04/28 09:39:49;;;;;;;12.88;7.60;;;12.20;99.90;;;;;;5042107;28;20029;-70
2023/04/28 09:42:34;;;;;;;14.15;7.43;;;12.30;99.90;;;;;;5042195;28;20125;-70
2023/04/28 09:45:01;;;;;;;13.52;6.43;;;12.30;99.90;;;;;;5040726;28;20078;-71
2023/04/28 09:47:28;;;;;;;11.40;6.38;;;12.40;99.90;;;;;;5021857;28;20029;-69
2023/04/28 09:49:55;;;;;;;13.50;6.50;;;12.40;99.90;;;;;;5041803;28;20041;-69
2023/04/28 09:52:22;;;;;;;12.18;7.10;;;12.50;99.90;;;;;;5023940;28;20094;-70
2023/04/28 09:54:50;;;;;;;11.65;6.30;;;12.50;99.90;;;;;;5025876;28;20029;-69
2023/04/28 09:57:17;;;;;;;9.10;5.22;;;12.60;99.90;;;;;;5042477;28;20040;-69
2023/04/28 09:59:46;;;;;;;12.60;5.55;;;12.60;99.90;;;;;;5043526;28;20037;-69
2023/04/28 10:02:14;;;;;;;9.30;5.45;;;12.70;99.90;;;;;;5039254;28;20040;-69
2023/04/28 10:04:43;;;;;;;9.02;4.93;;;12.70;99.90;;;;;;5023366;28;20061;-70
2023/04/28 10:07:11;;;;;;;9.40;5.45;;;12.80;99.90;;;;;;5042005;28;20520;-70
2023/04/28 10:09:37;;;;;;;11.73;6.25;;;12.80;99.90;;;;;;5018583;28;20030;-70
2023/04/28 10:12:04;;;;;;;11.93;6.57;;;12.80;99.90;;;;;;5041638;28;20090;-69
2023/04/28 10:14:31;;;;;;;8.73;5.20;;;12.80;99.90;;;;;;5043624;28;20566;-70
2023/04/28 10:16:58;;;;;;;12.15;6.18;;;12.80;99.90;;;;;;5041372;28;20025;-70
2023/04/28 10:19:24;;;;;;;14.82;6.95;;;12.90;99.90;;;;;;5042623;28;20093;-73
2023/04/28 10:22:01;;;;;;;11.30;5.88;;;12.90;99.90;;;;;;5044504;28;20473;-71
2023/04/28 10:24:32;;;;;;;10.65;5.63;;;12.90;99.90;;;;;;5044383;28;20119;-70
2023/04/28 10:27:10;;;;;;;;;;;12.90;99.90;;;;;;5046884;28;20033;-69
2023/04/28 10:29:36;;;;;;;10.48;5.78;;;13.00;99.90;;;;;;5045111;28;19924;-70
2023/04/28 10:32:23;;;;;;;11.13;5.97;;;13.00;99.90;;;;;;5018787;28;20099;-69
2023/04/28 10:34:52;;;;;;;12.15;5.70;;;13.00;99.90;;;;;;5045599;28;20515;-70
2023/04/28 10:37:18;;;;;;;14.27;5.95;;;13.10;99.90;;;;;;5027441;28;20037;-70
2023/04/28 10:40:21;;;;;;;13.95;6.10;;;13.10;99.90;;;;;;5046162;28;20099;-70
2023/04/28 10:42:51;;;;;;;12.07;5.03;;;13.10;99.90;;;;;;5043941;28;20048;-70
2023/04/28 10:45:52;;;;;;;12.65;5.10;;;13.30;99.90;;;;;;5043611;28;20094;-70
2023/04/28 10:48:18;;;;;;;8.70;3.97;;;13.30;99.90;;;;;;5042012;28;20116;-70
2023/04/28 10:51:05;;;;;;;10.70;4.45;;;13.40;99.90;;;;;;5028419;28;20059;-70
2023/04/28 10:54:07;;;;;;;6.50;3.65;;;13.50;99.90;;;;;;5028349;28;20505;-70
2023/04/28 10:56:32;;;;;;;7.95;4.05;;;13.50;99.90;;;;;;5043199;28;20059;-69
2023/04/28 10:58:58;;;;;;;7.35;3.47;;;13.60;99.90;;;;;;5025282;28;20393;-70
2023/04/28 11:01:30;;;;;;;10.50;3.90;;;13.70;99.90;;;;;;5044864;28;20040;-69
2023/04/28 11:04:11;;;;;;;9.65;3.10;;;13.80;99.90;;;;;;5045066;28;20033;-72
2023/04/28 11:06:41;;;;;;;7.22;3.05;;;13.80;99.90;;;;;;5043030;28;20036;-70
2023/04/28 11:09:13;;;;;;;6.78;2.83;;;13.90;99.90;;;;;;5043972;28;20441;-70
2023/04/28 11:11:58;;;;;;;6.10;2.42;;;13.80;99.90;;;;;;5044980;28;20079;-70
2023/04/28 11:14:32;;;;;;;6.97;2.47;;;13.80;99.90;;;;;;5042908;28;20033;-69
2023/04/28 11:17:05;;;;;;;5.00;1.60;;;13.90;99.90;;;;;;5029020;28;20036;-69
2023/04/28 11:19:39;;;;;;;3.13;1.20;;;14.00;99.90;;;;;;5024275;28;20067;-69
2023/04/28 11:22:19;;;;;;;2.25;1.20;;;14.00;99.90;;;;;;5041008;28;20393;-70
2023/04/28 11:24:59;;;;;;;2.67;1.10;;;14.30;99.90;;;;;;5043716;28;20052;-69
2023/04/28 11:27:26;;;;;;;2.45;1.05;;;14.60;99.90;;;;;;5044732;28;20114;-69
2023/04/28 11:29:55;;;;;;;0.90;0.40;;;14.70;99.90;;;;;;5044291;28;20593;-70
2023/04/28 11:32:28;;;;;;;1.80;0.73;;;14.80;99.90;;;;;;5042978;28;20033;-70
2023/04/28 11:34:54;;;;;;;1.55;0.45;;;14.80;99.90;;;;;;5028920;28;20045;-70
2023/04/28 11:37:22;;;;;;;1.80;0.60;;;14.80;99.90;;;;;;5041734;28;20087;-71
2023/04/28 11:39:48;;;;;;;0.75;0.32;;;14.70;99.90;;;;;;5043534;28;20592;-71
2023/04/28 11:42:16;;;;;;;0.63;0.30;;;14.80;99.90;;;;;;5042880;28;20037;-69
2023/04/28 11:44:47;;;;;;;0.47;0.20;;;14.90;99.90;;;;;;5043791;28;20125;-71
2023/04/28 11:47:26;;;;;;;2.03;0.40;;;14.90;99.90;;;;;;5043264;28;20029;-70
2023/04/28 11:49:52;;;;;;;0.82;0.40;;;14.90;99.90;;;;;;5026823;28;20025;-70
2023/04/28 11:52:19;;;;;;;1.50;0.25;;;14.90;99.90;;;;;;5021021;28;20025;-70
2023/04/28 11:54:51;;;;;;;1.02;0.50;;;14.90;99.90;;;;;;5028837;28;20086;-70
2023/04/28 11:57:22;;;;;;;0.63;0.30;;;14.90;99.90;;;;;;5042397;28;20041;-71
2023/04/28 11:59:48;;;;;;;0.40;0.20;;;14.90;99.90;;;;;;5025004;28;20032;-72
2023/04/28 12:02:13;;;;;;;1.08;0.47;;;14.90;99.90;;;;;;5024736;28;20159;-71
2023/04/28 12:04:41;;;;;;;2.35;0.60;;;14.90;99.90;;;;;;5043792;28;20503;-70
2023/04/28 12:07:12;;;;;;;1.35;0.50;;;14.90;99.90;;;;;;5042203;28;20044;-70
2023/04/28 12:09:42;;;;;;;1.35;0.75;;;14.80;99.90;;;;;;5042396;28;20056;-73
2023/04/28 12:12:10;;;;;;;1.88;0.80;;;14.80;99.90;;;;;;5023818;28;20044;-70
2023/04/28 12:14:56;;;;;;;2.05;0.90;;;14.70;99.90;;;;;;5043586;28;20076;-70
2023/04/28 12:17:36;;;;;;;1.52;0.93;;;14.60;99.90;;;;;;5041990;28;20041;-71
2023/04/28 12:20:06;;;;;;;;;;;14.60;99.90;;;;;;5042112;28;20501;-72
2023/04/28 12:22:47;;;;;;;1.67;1.23;;;14.70;99.90;;;;;;5043536;28;19912;-70
2023/04/28 12:25:19;;;;;;;1.05;0.73;;;14.80;99.90;;;;;;5042268;28;20781;-69
2023/04/28 12:28:01;;;;;;;1.77;1.13;;;14.90;99.90;;;;;;5025192;28;20036;-71
2023/04/28 12:30:28;;;;;;;0.57;0.50;;;15.00;99.90;;;;;;5040238;28;20412;-69
2023/04/28 12:32:55;;;;;;;0.73;0.50;;;15.00;99.90;;;;;;5025662;28;20463;-72
2023/04/28 12:35:28;;;;;;;0.85;0.77;;;15.00;99.90;;;;;;5041596;28;20055;-70
2023/04/28 12:37:55;;;;;;;0.77;0.63;;;15.00;99.90;;;;;;5042629;28;20041;-70
2023/04/28 12:40:26;;;;;;;1.25;0.93;;;14.80;99.90;;;;;;5042060;28;20748;-70
2023/04/28 12:42:52;;;;;;;0.65;0.50;;;14.80;99.90;;;;;;5042227;28;20033;-72
2023/04/28 12:45:18;;;;;;;1.23;0.57;;;14.80;99.90;;;;;;5041508;28;20155;-71
2023/04/28 12:47:43;;;;;;;0.50;0.47;;;14.80;99.90;;;;;;5041954;28;20432;-70
2023/04/28 12:50:09;;;;;;;0.60;0.50;;;14.80;99.90;;;;;;5041739;28;20040;-71
2023/04/28 12:52:38;;;;;;;1.27;0.60;;;15.00;99.90;;;;;;5026033;28;20038;-70